Time;durP1;ratioP1;P1;durP2;ratioP2;P2;SDS_P1;SDS_P2;PMS_P1;PMS_P2;Temp;Humidity;BMP_temperature;BMP_pressure;BME280_temperature;BME280_humidity;BME280_pressure;Samples;Min_cycle;Max_cycle;Signal;HPM_P1;HPM_P2
2021/10/18 00:01:04;;;;;;;14.87;10.97;;;8.90;99.90;;;;;;5065018;28;20212;-68
2021/10/18 00:03:31;;;;;;;17.80;12.60;;;8.90;99.90;;;;;;5073279;28;20672;-68
2021/10/18 00:05:58;;;;;;;21.50;12.87;;;8.90;99.90;;;;;;5066913;28;20686;-68
2021/10/18 00:08:25;;;;;;;19.97;11.90;;;9.00;99.90;;;;;;5059111;28;20566;-68
2021/10/18 00:10:53;;;;;;;20.53;11.90;;;8.90;99.90;;;;;;5055777;28;20212;-68
2021/10/18 00:13:20;;;;;;;16.50;11.10;;;9.00;99.90;;;;;;5067637;28;20249;-69
2021/10/18 00:15:47;;;;;;;18.73;12.10;;;9.00;99.90;;;;;;5063768;28;20209;-68
2021/10/18 00:18:14;;;;;;;16.17;11.40;;;8.90;99.90;;;;;;5071510;28;20663;-68
2021/10/18 00:20:41;;;;;;;17.13;11.07;;;8.90;99.90;;;;;;5058768;28;20197;-68
2021/10/18 00:23:09;;;;;;;22.03;11.73;;;8.90;99.90;;;;;;5053398;28;20212;-68
2021/10/18 00:25:35;;;;;;;18.40;12.17;;;8.90;99.90;;;;;;5056723;28;20209;-68
2021/10/18 00:28:04;;;;;;;16.13;11.53;;;9.00;99.90;;;;;;5052817;28;20202;-67
2021/10/18 00:30:31;;;;;;;15.83;11.27;;;9.00;99.90;;;;;;5066577;28;20237;-66
2021/10/18 00:32:58;;;;;;;15.20;11.10;;;9.00;99.90;;;;;;5064349;28;20225;-66
2021/10/18 00:35:24;;;;;;;20.27;11.67;;;9.00;99.90;;;;;;5071780;28;20201;-68
2021/10/18 00:37:51;;;;;;;16.40;11.13;;;9.00;99.90;;;;;;5070803;28;20299;-68
2021/10/18 00:40:18;;;;;;;20.13;12.47;;;9.00;99.90;;;;;;5053657;28;20219;-68
2021/10/18 00:42:45;;;;;;;18.63;11.43;;;9.00;99.90;;;;;;5068052;28;20206;-68
2021/10/18 00:45:13;;;;;;;18.20;11.37;;;9.00;99.90;;;;;;5072118;28;20668;-67
2021/10/18 00:47:40;;;;;;;19.17;11.33;;;9.00;99.90;;;;;;5052508;28;20249;-67
2021/10/18 00:50:08;;;;;;;17.43;11.60;;;9.00;99.90;;;;;;5055722;28;20205;-67
2021/10/18 00:52:36;;;;;;;16.87;10.67;;;9.00;99.90;;;;;;5070503;28;20221;-68
2021/10/18 00:55:04;;;;;;;18.20;11.37;;;9.10;99.90;;;;;;5059301;28;20210;-67
2021/10/18 00:57:31;;;;;;;17.33;10.90;;;9.10;99.90;;;;;;5066111;28;20201;-67
2021/10/18 00:59:59;;;;;;;17.20;10.70;;;9.10;99.90;;;;;;5066950;28;20209;-68
2021/10/18 01:02:28;;;;;;;16.60;10.83;;;9.10;99.90;;;;;;5052713;28;20198;-67
2021/10/18 01:04:56;;;;;;;19.37;11.03;;;9.30;99.90;;;;;;5058629;28;20563;-68
2021/10/18 01:07:23;;;;;;;17.37;10.93;;;9.20;99.90;;;;;;5062901;28;20201;-68
2021/10/18 01:09:49;;;;;;;16.97;11.30;;;9.20;99.90;;;;;;5072455;28;20209;-68
2021/10/18 01:12:16;;;;;;;18.13;11.20;;;9.20;99.90;;;;;;5062395;28;20239;-67
2021/10/18 01:14:43;;;;;;;19.90;11.40;;;9.20;99.90;;;;;;5066446;28;20320;-68
2021/10/18 01:17:10;;;;;;;16.33;11.37;;;9.20;99.90;;;;;;5071190;28;20201;-68
2021/10/18 01:19:39;;;;;;;18.03;10.97;;;9.20;99.90;;;;;;5069146;28;20209;-69
2021/10/18 01:22:07;;;;;;;19.17;12.37;;;9.20;99.90;;;;;;5057701;28;20205;-67
2021/10/18 01:24:35;;;;;;;13.47;10.23;;;9.20;99.90;;;;;;5060151;28;20304;-67
2021/10/18 01:27:03;;;;;;;17.57;10.93;;;9.20;99.90;;;;;;5068279;28;20300;-67
2021/10/18 01:29:31;;;;;;;19.43;11.60;;;9.20;99.90;;;;;;5052348;28;20714;-67
2021/10/18 01:31:58;;;;;;;19.93;12.10;;;9.20;99.90;;;;;;5053548;28;20244;-67
2021/10/18 01:34:26;;;;;;;15.57;10.77;;;9.20;99.90;;;;;;5060361;28;20213;-68
2021/10/18 01:36:54;;;;;;;17.63;11.27;;;9.20;99.90;;;;;;5066876;28;20255;-68
2021/10/18 01:39:22;;;;;;;17.90;11.33;;;9.20;99.90;;;;;;5066035;28;20665;-68
2021/10/18 01:41:49;;;;;;;17.13;10.87;;;9.20;99.90;;;;;;5057779;28;20556;-67
2021/10/18 01:44:15;;;;;;;18.87;11.17;;;9.30;99.90;;;;;;5065374;28;20225;-68
2021/10/18 01:46:42;;;;;;;18.60;10.93;;;9.20;99.90;;;;;;5063589;28;20205;-68
2021/10/18 01:49:09;;;;;;;15.60;10.53;;;9.20;99.90;;;;;;5071811;28;20638;-68
2021/10/18 01:51:36;;;;;;;17.93;11.63;;;9.20;99.90;;;;;;5067559;28;20196;-69
2021/10/18 01:54:03;;;;;;;17.53;11.47;;;9.20;99.90;;;;;;5061851;28;20202;-68
2021/10/18 01:56:33;;;;;;;17.47;10.90;;;9.20;99.90;;;;;;5070800;28;20217;-67
2021/10/18 01:59:00;;;;;;;14.93;10.93;;;9.20;99.90;;;;;;5069405;28;20219;-68
2021/10/18 02:01:27;;;;;;;15.40;10.63;;;9.20;99.90;;;;;;5064080;28;20204;-67
2021/10/18 02:03:54;;;;;;;16.17;10.90;;;9.20;99.90;;;;;;5070731;28;20218;-68
2021/10/18 02:06:21;;;;;;;15.40;10.90;;;9.20;99.90;;;;;;5057803;28;20206;-67
2021/10/18 02:08:48;;;;;;;16.73;11.67;;;9.20;99.90;;;;;;5072446;28;20420;-68
2021/10/18 02:11:15;;;;;;;18.03;11.33;;;9.20;99.90;;;;;;5065476;28;20205;-67
2021/10/18 02:13:43;;;;;;;15.10;10.93;;;9.20;99.90;;;;;;5057546;28;20235;-68
2021/10/18 02:16:10;;;;;;;17.07;11.37;;;9.20;99.90;;;;;;5059016;28;20312;-70
2021/10/18 02:18:36;;;;;;;16.73;11.40;;;9.20;99.90;;;;;;5059795;28;20208;-68
2021/10/18 02:21:03;;;;;;;23.00;11.77;;;9.20;99.90;;;;;;5060997;28;20213;-69
2021/10/18 02:23:31;;;;;;;16.40;11.30;;;9.20;99.90;;;;;;5065860;28;20202;-67
2021/10/18 02:25:59;;;;;;;18.13;11.23;;;9.20;99.90;;;;;;5062592;28;20209;-69
2021/10/18 02:28:26;;;;;;;19.87;11.37;;;9.20;99.90;;;;;;5061781;28;20588;-68
2021/10/18 02:30:54;;;;;;;16.53;11.40;;;9.20;99.90;;;;;;5074268;28;20243;-68
2021/10/18 02:33:21;;;;;;;15.23;11.43;;;9.20;99.90;;;;;;5075705;28;20224;-68
2021/10/18 02:35:48;;;;;;;18.30;11.17;;;9.20;99.90;;;;;;5062197;28;20694;-68
2021/10/18 02:38:15;;;;;;;15.47;12.10;;;9.10;99.90;;;;;;5062048;28;20206;-68
2021/10/18 02:40:41;;;;;;;16.33;10.67;;;9.10;99.90;;;;;;5058232;28;20284;-69
2021/10/18 02:43:08;;;;;;;13.40;10.80;;;9.10;99.90;;;;;;5063511;28;20585;-68
2021/10/18 02:45:35;;;;;;;17.10;11.10;;;9.10;99.90;;;;;;5060028;28;20201;-69
2021/10/18 02:48:04;;;;;;;17.23;11.73;;;9.20;99.90;;;;;;5075263;28;20296;-69
2021/10/18 02:50:31;;;;;;;17.50;11.73;;;9.10;99.90;;;;;;5060285;28;20208;-69
2021/10/18 02:52:57;;;;;;;21.30;12.37;;;9.10;99.90;;;;;;5060926;28;20217;-69
2021/10/18 02:55:24;;;;;;;15.93;11.60;;;9.10;99.90;;;;;;5062641;28;20206;-69
2021/10/18 02:57:51;;;;;;;19.60;12.40;;;9.10;99.90;;;;;;5070934;28;20658;-68
2021/10/18 03:00:18;;;;;;;20.43;12.37;;;9.10;99.90;;;;;;5066920;28;20698;-68
2021/10/18 03:02:45;;;;;;;18.27;12.60;;;9.10;99.90;;;;;;5059297;28;20212;-68
2021/10/18 03:05:13;;;;;;;17.90;11.90;;;9.10;99.90;;;;;;5074650;28;20209;-67
2021/10/18 03:07:40;;;;;;;19.23;12.00;;;9.00;99.90;;;;;;5074633;28;20566;-68
2021/10/18 03:10:08;;;;;;;18.47;11.13;;;9.00;99.90;;;;;;5060954;28;20216;-68
2021/10/18 03:12:35;;;;;;;17.63;12.23;;;9.00;99.90;;;;;;5059839;28;20216;-69
2021/10/18 03:15:03;;;;;;;18.77;11.93;;;8.90;99.90;;;;;;5066308;28;20206;-69
2021/10/18 03:17:30;;;;;;;18.70;12.13;;;8.90;99.90;;;;;;5064467;28;20645;-68
2021/10/18 03:19:56;;;;;;;18.53;12.47;;;8.90;99.90;;;;;;5061552;28;20746;-68
2021/10/18 03:22:25;;;;;;;15.10;11.80;;;8.90;99.90;;;;;;5064042;28;20351;-68
2021/10/18 03:24:52;;;;;;;16.63;12.53;;;8.90;99.90;;;;;;5054455;28;20210;-68
2021/10/18 03:27:20;;;;;;;16.37;11.57;;;8.90;99.90;;;;;;5067704;28;20206;-69
2021/10/18 03:29:47;;;;;;;23.27;12.10;;;8.80;99.90;;;;;;5053900;28;20248;-69
2021/10/18 03:32:14;;;;;;;19.13;11.97;;;8.80;99.90;;;;;;5071534;28;20201;-68
2021/10/18 03:34:41;;;;;;;16.83;11.83;;;8.80;99.90;;;;;;5068977;28;20558;-69
2021/10/18 03:37:08;;;;;;;23.77;13.13;;;8.80;99.90;;;;;;5072476;28;20221;-69
2021/10/18 03:39:36;;;;;;;21.03;12.90;;;8.80;99.90;;;;;;5067130;28;20206;-69
2021/10/18 03:42:03;;;;;;;21.03;12.93;;;8.80;99.90;;;;;;5068724;28;20213;-69
2021/10/18 03:44:30;;;;;;;19.53;13.17;;;8.80;99.90;;;;;;5063408;28;20567;-68
2021/10/18 03:46:56;;;;;;;18.20;12.10;;;8.80;99.90;;;;;;5071856;28;20588;-68
2021/10/18 03:49:23;;;;;;;17.67;12.27;;;8.80;99.90;;;;;;5065046;28;20207;-69
2021/10/18 03:51:50;;;;;;;19.20;13.07;;;8.90;99.90;;;;;;5065393;28;20555;-68
2021/10/18 03:54:17;;;;;;;22.57;12.60;;;8.80;99.90;;;;;;5068311;28;20232;-68
2021/10/18 03:56:45;;;;;;;18.07;12.93;;;8.80;99.90;;;;;;5073842;28;20197;-68
2021/10/18 03:59:12;;;;;;;18.80;11.13;;;8.80;99.90;;;;;;5062305;28;20206;-68
2021/10/18 04:01:39;;;;;;;20.23;12.23;;;8.80;99.90;;;;;;5072422;28;20560;-69
2021/10/18 04:04:06;;;;;;;22.60;13.07;;;8.70;99.90;;;;;;5070032;28;20292;-68
2021/10/18 04:06:32;;;;;;;22.07;12.70;;;8.80;99.90;;;;;;5071637;28;20201;-68
2021/10/18 04:08:59;;;;;;;22.17;12.60;;;8.80;99.90;;;;;;5073795;28;20300;-68
2021/10/18 04:11:26;;;;;;;18.90;12.90;;;8.80;99.90;;;;;;5073480;28;20205;-68
2021/10/18 04:13:55;;;;;;;17.47;12.23;;;8.80;99.90;;;;;;5066889;28;20221;-68
2021/10/18 04:16:21;;;;;;;21.17;12.87;;;8.80;99.90;;;;;;5065369;28;20253;-68
2021/10/18 04:18:48;;;;;;;18.40;11.83;;;8.70;99.90;;;;;;5073845;28;20580;-67
2021/10/18 04:21:15;;;;;;;18.73;12.73;;;8.70;99.90;;;;;;5073313;28;20208;-68
2021/10/18 04:23:42;;;;;;;18.77;12.97;;;8.70;99.90;;;;;;5072712;28;20645;-69
2021/10/18 04:26:08;;;;;;;18.00;12.23;;;8.60;99.90;;;;;;5053670;28;20255;-67
2021/10/18 04:28:35;;;;;;;21.03;11.60;;;8.60;99.90;;;;;;5070541;28;20689;-68
2021/10/18 04:31:03;;;;;;;17.87;12.33;;;8.60;99.90;;;;;;5071091;28;20229;-69
2021/10/18 04:33:30;;;;;;;18.43;12.67;;;8.60;99.90;;;;;;5059210;28;20238;-68
2021/10/18 04:35:57;;;;;;;19.77;13.03;;;8.60;99.90;;;;;;5065733;28;20237;-67
2021/10/18 04:38:24;;;;;;;17.20;12.57;;;8.60;99.90;;;;;;5059658;28;20202;-67
2021/10/18 04:40:51;;;;;;;22.03;13.07;;;8.50;99.90;;;;;;5053249;28;20642;-68
2021/10/18 04:43:18;;;;;;;17.20;12.23;;;8.50;99.90;;;;;;5063866;28;20201;-68
2021/10/18 04:45:44;;;;;;;20.67;12.60;;;8.50;99.90;;;;;;5071100;28;20205;-68
2021/10/18 04:48:13;;;;;;;19.17;13.13;;;8.50;99.90;;;;;;5069886;28;20213;-69
2021/10/18 04:50:39;;;;;;;20.03;13.03;;;8.50;99.90;;;;;;5072538;28;20210;-68
2021/10/18 04:53:06;;;;;;;19.50;13.33;;;8.50;99.90;;;;;;5071753;28;20581;-67
2021/10/18 04:55:33;;;;;;;16.73;12.13;;;8.50;99.90;;;;;;5053693;28;20210;-69
2021/10/18 04:58:01;;;;;;;18.73;12.20;;;8.50;99.90;;;;;;5055045;28;20559;-69
2021/10/18 05:00:33;;;;;;;20.37;12.77;;;8.50;99.90;;;;;;5054476;28;20220;-68
2021/10/18 05:03:00;;;;;;;20.00;12.57;;;8.50;99.90;;;;;;5068739;28;20221;-68
2021/10/18 05:05:28;;;;;;;17.93;11.83;;;8.50;99.90;;;;;;5072392;28;20217;-68
2021/10/18 05:08:05;;;;;;;17.73;12.00;;;8.40;99.90;;;;;;5058142;28;20206;-67
2021/10/18 05:10:33;;;;;;;21.37;12.37;;;8.40;99.90;;;;;;5065963;28;20211;-68
2021/10/18 05:13:00;;;;;;;22.17;13.73;;;8.40;99.90;;;;;;5059777;28;20229;-68
2021/10/18 05:15:27;;;;;;;15.77;11.57;;;8.40;99.90;;;;;;5055766;28;20209;-68
2021/10/18 05:17:54;;;;;;;20.27;11.80;;;8.40;99.90;;;;;;5068246;28;20209;-67
2021/10/18 05:20:21;;;;;;;20.83;12.73;;;8.40;99.90;;;;;;5055224;28;20224;-67
2021/10/18 05:22:50;;;;;;;18.67;12.90;;;8.40;99.90;;;;;;5062059;28;20235;-71
2021/10/18 05:25:17;;;;;;;19.30;12.40;;;8.40;99.90;;;;;;5056246;28;20699;-70
2021/10/18 05:27:44;;;;;;;19.40;11.83;;;8.40;99.90;;;;;;5055744;28;20209;-74
2021/10/18 05:30:12;;;;;;;18.80;12.30;;;8.30;99.90;;;;;;5052066;28;20286;-74
2021/10/18 05:32:40;;;;;;;19.33;11.83;;;8.30;99.90;;;;;;5053621;28;20220;-71
2021/10/18 05:35:08;;;;;;;19.63;12.10;;;8.30;99.90;;;;;;5053058;28;20229;-69
2021/10/18 05:37:40;;;;;;;20.90;12.97;;;8.30;99.90;;;;;;5054264;28;20305;-69
2021/10/18 05:40:10;;;;;;;20.37;12.53;;;8.30;99.90;;;;;;5063280;28;20294;-69
2021/10/18 05:42:37;;;;;;;16.80;11.67;;;8.30;99.90;;;;;;5061984;28;20647;-71
2021/10/18 05:45:04;;;;;;;19.47;12.73;;;8.30;99.90;;;;;;5052701;28;20212;-70
2021/10/18 05:47:31;;;;;;;20.70;12.83;;;8.30;99.90;;;;;;5066707;28;20219;-71
2021/10/18 05:49:59;;;;;;;16.00;12.43;;;8.20;99.90;;;;;;5056281;28;20214;-70
2021/10/18 05:52:27;;;;;;;18.53;12.57;;;8.20;99.90;;;;;;5059056;28;20209;-70
2021/10/18 05:54:54;;;;;;;18.23;12.17;;;8.30;99.90;;;;;;5058085;28;20220;-70
2021/10/18 05:57:23;;;;;;;18.10;12.63;;;8.30;99.90;;;;;;5071948;28;20209;-72
2021/10/18 05:59:50;;;;;;;21.80;13.00;;;8.30;99.90;;;;;;5071206;28;20543;-70
2021/10/18 06:02:16;;;;;;;16.33;11.50;;;8.30;99.90;;;;;;5070380;28;20205;-71
2021/10/18 06:04:45;;;;;;;21.17;12.33;;;8.40;99.90;;;;;;5062111;28;20206;-71
2021/10/18 06:07:12;;;;;;;19.03;11.83;;;8.40;99.90;;;;;;5064276;28;20628;-71
2021/10/18 06:09:39;;;;;;;21.67;12.43;;;8.50;99.90;;;;;;5062715;28;20252;-71
2021/10/18 06:12:06;;;;;;;18.27;12.13;;;8.50;99.90;;;;;;5055703;28;20201;-71
2021/10/18 06:14:35;;;;;;;21.70;12.13;;;8.50;99.90;;;;;;5065643;28;20247;-71
2021/10/18 06:17:01;;;;;;;20.77;12.63;;;8.60;99.90;;;;;;5062539;28;20205;-71
2021/10/18 06:19:28;;;;;;;16.93;12.73;;;8.60;99.90;;;;;;5052726;28;20206;-72
2021/10/18 06:21:55;;;;;;;18.43;12.17;;;8.60;99.90;;;;;;5052522;28;20230;-70
2021/10/18 06:24:22;;;;;;;20.30;11.60;;;8.60;99.90;;;;;;5062903;28;20237;-71
2021/10/18 06:26:49;;;;;;;18.07;11.43;;;8.60;99.90;;;;;;5063307;28;20292;-71
2021/10/18 06:29:16;;;;;;;18.13;11.47;;;8.60;99.90;;;;;;5052068;28;20333;-70
2021/10/18 06:31:44;;;;;;;19.90;11.43;;;8.60;99.90;;;;;;5056816;28;20204;-73
2021/10/18 06:34:11;;;;;;;20.07;11.83;;;8.60;99.90;;;;;;5060848;28;20257;-71
2021/10/18 06:36:38;;;;;;;22.20;12.27;;;8.60;99.90;;;;;;5052042;28;21139;-72
2021/10/18 06:39:05;;;;;;;19.10;11.17;;;8.60;99.90;;;;;;5052416;28;20237;-70
2021/10/18 06:41:32;;;;;;;22.07;13.17;;;8.70;99.90;;;;;;5052956;28;20276;-70
2021/10/18 06:43:59;;;;;;;18.03;12.23;;;8.80;99.90;;;;;;5053676;28;20427;-71
2021/10/18 06:46:25;;;;;;;17.17;11.53;;;8.80;99.90;;;;;;5051908;28;20574;-71
2021/10/18 06:48:54;;;;;;;17.40;11.87;;;9.00;99.90;;;;;;5054278;28;20634;-70
2021/10/18 06:51:20;;;;;;;17.10;12.07;;;9.00;99.90;;;;;;5063630;28;20901;-70
2021/10/18 06:53:50;;;;;;;21.37;13.73;;;9.20;99.90;;;;;;5071206;28;20693;-68
2021/10/18 06:56:17;;;;;;;16.63;11.33;;;9.40;99.90;;;;;;5056844;28;20255;-68
2021/10/18 06:58:44;;;;;;;17.63;12.37;;;9.50;99.90;;;;;;5061395;28;20201;-70
2021/10/18 07:01:11;;;;;;;17.80;10.87;;;9.70;99.90;;;;;;5059961;28;20288;-70
2021/10/18 07:03:38;;;;;;;17.17;10.70;;;9.90;99.90;;;;;;5064062;28;20217;-70
2021/10/18 07:06:06;;;;;;;16.33;10.80;;;9.80;99.90;;;;;;5064715;28;20292;-71
2021/10/18 07:08:33;;;;;;;17.20;10.27;;;9.90;99.90;;;;;;5058626;28;20217;-70
2021/10/18 07:11:00;;;;;;;15.77;10.50;;;9.90;99.90;;;;;;5064211;28;20259;-69
2021/10/18 07:13:27;;;;;;;17.30;10.23;;;9.90;99.90;;;;;;5056375;28;20198;-70
2021/10/18 07:15:54;;;;;;;17.53;10.07;;;10.00;99.90;;;;;;5066841;28;20619;-70
2021/10/18 07:18:21;;;;;;;16.17;10.43;;;10.10;99.90;;;;;;5073006;28;20245;-71
2021/10/18 07:20:48;;;;;;;15.30;10.80;;;10.10;99.90;;;;;;5072578;28;20209;-70
2021/10/18 07:23:16;;;;;;;14.80;10.23;;;10.10;99.90;;;;;;5074719;28;20693;-71
2021/10/18 07:25:44;;;;;;;14.50;9.57;;;10.20;99.90;;;;;;5066372;28;20210;-71
2021/10/18 07:28:11;;;;;;;12.67;9.17;;;10.30;99.90;;;;;;5068831;28;20212;-71
2021/10/18 07:30:40;;;;;;;17.77;10.30;;;10.40;99.90;;;;;;5054712;28;20244;-72
2021/10/18 07:33:07;;;;;;;15.20;9.27;;;10.50;99.90;;;;;;5058732;28;20259;-73
2021/10/18 07:35:35;;;;;;;12.40;8.97;;;10.50;99.90;;;;;;5073210;28;20696;-73
2021/10/18 07:38:04;;;;;;;10.30;7.60;;;10.60;99.90;;;;;;5061563;28;20229;-71
2021/10/18 07:40:33;;;;;;;12.67;8.17;;;10.70;99.90;;;;;;5074302;28;20205;-72
2021/10/18 07:43:01;;;;;;;13.63;8.30;;;10.80;99.90;;;;;;5060980;28;20210;-73
2021/10/18 07:45:29;;;;;;;17.13;8.47;;;10.70;99.90;;;;;;5054458;28;20210;-71
2021/10/18 07:47:56;;;;;;;11.87;7.77;;;10.70;99.90;;;;;;5063390;28;20208;-72
2021/10/18 07:50:23;;;;;;;11.67;7.63;;;10.80;99.90;;;;;;5064142;28;20258;-71
2021/10/18 07:52:51;;;;;;;12.77;7.77;;;10.80;99.90;;;;;;5060588;28;20217;-72
2021/10/18 07:55:18;;;;;;;17.97;7.30;;;11.10;99.90;;;;;;5057666;28;20309;-72
2021/10/18 07:57:49;;;;;;;11.73;6.93;;;11.40;99.90;;;;;;5067178;28;20240;-71
2021/10/18 08:00:17;;;;;;;10.20;7.37;;;11.60;99.90;;;;;;5071286;28;20224;-72
2021/10/18 08:02:45;;;;;;;9.07;6.87;;;11.70;99.90;;;;;;5066559;28;20236;-72
2021/10/18 08:05:16;;;;;;;9.83;6.60;;;11.80;99.90;;;;;;5061197;28;20213;-72
2021/10/18 08:07:45;;;;;;;9.97;6.77;;;11.90;99.90;;;;;;5059465;28;20270;-72
2021/10/18 08:10:14;;;;;;;10.97;6.50;;;12.10;99.90;;;;;;5057877;28;20573;-72
2021/10/18 08:12:42;;;;;;;7.80;6.00;;;12.30;99.90;;;;;;5060269;28;20726;-72
2021/10/18 08:15:10;;;;;;;10.83;7.07;;;12.60;99.90;;;;;;5055341;28;20229;-72
2021/10/18 08:17:37;;;;;;;8.87;6.07;;;12.80;99.90;;;;;;5060466;28;20206;-72
2021/10/18 08:20:06;;;;;;;7.20;6.10;;;13.10;99.90;;;;;;5051105;28;20643;-71
2021/10/18 08:22:33;;;;;;;6.97;5.23;;;13.20;99.90;;;;;;5043239;28;20209;-74
2021/10/18 08:25:00;;;;;;;8.97;5.83;;;13.30;99.90;;;;;;5041896;28;20216;-72
2021/10/18 08:27:27;;;;;;;9.87;6.13;;;13.30;99.90;;;;;;5052356;28;20216;-73
2021/10/18 08:29:54;;;;;;;8.53;5.27;;;13.40;99.90;;;;;;5057472;28;20241;-71
2021/10/18 08:32:22;;;;;;;8.97;5.83;;;13.30;99.90;;;;;;5055512;28;20296;-73
2021/10/18 08:34:49;;;;;;;7.10;5.53;;;13.40;99.90;;;;;;5060940;28;20245;-73
2021/10/18 08:37:17;;;;;;;7.60;5.43;;;13.40;99.90;;;;;;5057684;28;20225;-73
2021/10/18 08:42:30;;;;;;;7.37;5.57;;;13.40;99.90;;;;;;5051779;28;20675;-73
2021/10/18 08:44:57;;;;;;;7.70;5.57;;;13.40;99.90;;;;;;5057997;28;20277;-73
2021/10/18 08:47:27;;;;;;;9.80;5.93;;;13.30;99.90;;;;;;5061360;28;20210;-73
2021/10/18 08:49:54;;;;;;;9.20;5.33;;;13.30;99.90;;;;;;5058511;28;20316;-73
2021/10/18 08:52:22;;;;;;;9.10;5.43;;;13.20;99.90;;;;;;5056878;28;20208;-73
2021/10/18 08:54:49;;;;;;;6.90;4.70;;;13.20;99.90;;;;;;5063814;28;20802;-74
2021/10/18 08:57:16;;;;;;;5.90;4.23;;;13.20;99.90;;;;;;5061559;28;20337;-74
2021/10/18 08:59:43;;;;;;;7.70;4.63;;;13.30;99.90;;;;;;5059122;28;20265;-72
2021/10/18 09:02:10;;;;;;;8.23;5.10;;;13.50;99.90;;;;;;5056247;28;20216;-73
2021/10/18 09:04:40;;;;;;;7.73;4.77;;;13.70;99.90;;;;;;5057582;28;20300;-73
2021/10/18 09:07:16;;;;;;;6.43;4.40;;;14.80;99.90;;;;;;5057468;28;20206;-73
2021/10/18 09:09:48;;;;;;;7.50;4.60;;;16.70;99.90;;;;;;5058087;28;20210;-72
2021/10/18 09:12:26;;;;;;;4.03;3.35;;;20.10;99.90;;;;;;5056032;28;20767;-74
2021/10/18 09:14:53;;;;;;;4.28;3.78;;;24.00;92.20;;;;;;5053659;28;21085;-74
2021/10/18 09:17:32;;;;;;;4.40;3.60;;;27.30;69.40;;;;;;5055728;28;20612;-72
2021/10/18 09:20:26;;;;;;;4.78;3.20;;;30.20;55.00;;;;;;5054412;28;20213;-73
2021/10/18 09:22:55;;;;;;;5.78;3.42;;;31.90;48.50;;;;;;5056821;28;20197;-73
2021/10/18 09:25:35;;;;;;;4.07;3.20;;;32.20;45.90;;;;;;5056709;28;20209;-73
2021/10/18 09:28:10;;;;;;;5.30;3.17;;;32.50;43.30;;;;;;5053025;28;20621;-73
2021/10/18 09:30:38;;;;;;;5.05;2.40;;;33.50;40.90;;;;;;5055042;28;20323;-72
2021/10/18 09:33:15;;;;;;;2.35;1.98;;;34.20;40.00;;;;;;5054365;28;20209;-74
2021/10/18 09:35:43;;;;;;;5.90;2.50;;;34.10;37.00;;;;;;5051205;28;20658;-74
2021/10/18 09:38:11;;;;;;;4.80;2.90;;;32.80;38.80;;;;;;5058004;28;20470;-72
2021/10/18 09:40:40;;;;;;;6.07;2.80;;;32.20;40.70;;;;;;5056945;28;20198;-73
2021/10/18 09:43:12;;;;;;;3.67;2.38;;;32.30;39.10;;;;;;5069239;28;20217;-75
2021/10/18 09:45:56;;;;;;;3.28;2.20;;;33.00;39.10;;;;;;5052894;28;20210;-72
2021/10/18 10:53:22;;;;;;;2.55;1.55;;;44.00;23.80;;;;;;5053318;28;20678;-70
2021/10/18 10:55:50;;;;;;;1.60;1.20;;;43.00;24.70;;;;;;5056224;28;20698;-70
2021/10/18 10:58:37;;;;;;;3.33;1.50;;;43.10;24.80;;;;;;5072182;28;20612;-72
2021/10/18 11:01:04;;;;;;;1.75;1.55;;;44.00;24.40;;;;;;5065256;28;20197;-72
2021/10/18 11:03:49;;;;;;;2.63;1.40;;;43.70;23.40;;;;;;5064282;28;20296;-72
2021/10/18 11:06:17;;;;;;;2.72;1.20;;;42.00;25.30;;;;;;5067222;28;20648;-73
2021/10/18 11:08:45;;;;;;;2.35;2.03;;;41.70;24.70;;;;;;5066445;28;20642;-72
2021/10/18 11:11:18;;;;;;;2.13;1.33;;;39.50;24.50;;;;;;5064564;28;20631;-72
2021/10/18 11:13:54;;;;;;;1.52;1.20;;;36.40;26.30;;;;;;5069387;28;20236;-73
2021/10/18 11:16:23;;;;;;;4.60;2.30;;;33.40;28.50;;;;;;5054369;28;20275;-72
2021/10/18 11:18:54;;;;;;;1.50;1.00;;;30.90;30.40;;;;;;5059998;28;20205;-72
2021/10/18 11:21:22;;;;;;;1.48;1.30;;;28.80;33.10;;;;;;5070592;28;20204;-73
2021/10/18 11:23:58;;;;;;;2.00;1.50;;;27.60;35.60;;;;;;5053284;28;20670;-73
2021/10/18 11:26:26;;;;;;;1.92;1.48;;;29.10;36.90;;;;;;5057555;28;20227;-72
2021/10/18 11:28:56;;;;;;;1.83;1.35;;;29.70;33.20;;;;;;5071138;28;20288;-70
2021/10/18 11:31:28;;;;;;;2.80;1.88;;;29.00;33.70;;;;;;5060836;28;20198;-70
2021/10/18 11:34:03;;;;;;;2.20;1.58;;;27.70;35.10;;;;;;5057186;28;20698;-70
2021/10/18 11:36:31;;;;;;;2.42;1.80;;;26.40;37.00;;;;;;5064843;28;20336;-72
2021/10/18 11:39:12;;;;;;;3.10;1.70;;;25.40;38.80;;;;;;5054443;28;20304;-71
2021/10/18 11:42:08;;;;;;;3.95;1.70;;;24.40;40.20;;;;;;5058049;28;20206;-70
2021/10/18 11:44:47;;;;;;;4.35;1.58;;;23.40;41.50;;;;;;5055689;28;20233;-70
2021/10/18 11:47:34;;;;;;;3.80;1.92;;;22.60;42.70;;;;;;5052670;28;20205;-71
2021/10/18 11:50:10;;;;;;;4.10;2.15;;;21.80;44.20;;;;;;5055848;28;20202;-71
2021/10/18 11:52:41;;;;;;;2.88;1.75;;;21.90;45.80;;;;;;5054705;28;20201;-71
2021/10/18 11:55:09;;;;;;;4.50;2.38;;;21.80;44.40;;;;;;5062929;28;20563;-71
2021/10/18 11:57:41;;;;;;;2.80;1.83;;;21.40;44.70;;;;;;5073464;28;20209;-71
2021/10/18 12:00:12;;;;;;;3.65;2.10;;;21.40;52.10;;;;;;5055665;28;20197;-71
2021/10/18 12:02:45;;;;;;;3.80;1.80;;;23.60;48.20;;;;;;5066191;28;20239;-71
2021/10/18 12:05:13;;;;;;;2.55;1.90;;;27.50;42.50;;;;;;5052083;28;20302;-70
2021/10/18 12:07:45;;;;;;;2.15;1.45;;;31.90;36.20;;;;;;5055232;28;20210;-70
2021/10/18 12:10:14;;;;;;;1.40;1.05;;;35.70;31.40;;;;;;5053435;28;20308;-69
2021/10/18 12:12:59;;;;;;;2.33;1.30;;;38.10;28.70;;;;;;5052374;28;20198;-69
2021/10/18 12:15:27;;;;;;;2.42;1.52;;;40.20;27.20;;;;;;5052000;28;20576;-71
2021/10/18 12:17:54;;;;;;;4.22;1.60;;;41.90;25.80;;;;;;5051414;28;20210;-71
2021/10/18 12:20:21;;;;;;;4.60;1.77;;;43.50;24.50;;;;;;5051603;28;20198;-71
2021/10/18 12:23:02;;;;;;;3.17;1.60;;;44.70;23.70;;;;;;5051925;28;20293;-71
2021/10/18 12:25:29;;;;;;;4.28;1.95;;;45.40;23.00;;;;;;5058624;28;20204;-69
2021/10/18 12:27:57;;;;;;;2.95;1.70;;;45.80;22.80;;;;;;5052825;28;20293;-72
2021/10/18 12:30:40;;;;;;;3.33;1.88;;;46.40;22.40;;;;;;5056843;28;20919;-72
2021/10/18 12:33:08;;;;;;;6.35;1.70;;;46.80;22.00;;;;;;5055710;28;20201;-71
2021/10/18 12:35:35;;;;;;;3.17;1.35;;;47.20;21.90;;;;;;5059061;28;20584;-69
2021/10/18 12:38:09;;;;;;;5.50;1.70;;;47.80;21.60;;;;;;5052856;28;20205;-70
2021/10/18 12:40:36;;;;;;;2.17;1.30;;;48.10;21.40;;;;;;5053523;28;20193;-71
2021/10/18 12:43:03;;;;;;;2.00;1.30;;;46.90;20.70;;;;;;5057901;28;20304;-71
2021/10/18 12:45:34;;;;;;;2.33;1.63;;;44.10;21.30;;;;;;5054652;28;20221;-71
2021/10/18 12:48:03;;;;;;;1.77;1.52;;;40.60;22.90;;;;;;5057262;28;20681;-71
2021/10/18 12:50:36;;;;;;;2.22;1.67;;;37.30;24.80;;;;;;5053667;28;20220;-73
2021/10/18 12:53:10;;;;;;;2.55;1.60;;;34.40;26.40;;;;;;5057892;28;20258;-71
2021/10/18 12:55:38;;;;;;;5.15;1.33;;;31.90;28.50;;;;;;5064508;28;20222;-71
2021/10/18 12:58:07;;;;;;;1.63;1.50;;;29.60;30.00;;;;;;5062486;28;20237;-72
2021/10/18 13:00:36;;;;;;;3.08;1.70;;;27.60;31.80;;;;;;5070243;28;20292;-71
2021/10/18 13:03:19;;;;;;;2.25;1.50;;;25.90;34.10;;;;;;5057912;28;20209;-72
2021/10/18 13:05:48;;;;;;;2.60;1.40;;;24.40;35.90;;;;;;5066831;28;20228;-72
2021/10/18 13:08:16;;;;;;;1.42;1.33;;;23.10;37.10;;;;;;5054356;28;20312;-71
2021/10/18 13:10:44;;;;;;;4.80;1.80;;;22.00;38.50;;;;;;5062890;28;20669;-71
2021/10/18 13:13:12;;;;;;;2.38;1.70;;;21.00;40.40;;;;;;5067463;28;20621;-72
2021/10/18 13:15:42;;;;;;;2.10;1.90;;;20.20;42.00;;;;;;5072841;28;20312;-74
2021/10/18 13:18:11;;;;;;;4.93;3.33;;;19.40;43.40;;;;;;5070645;28;20292;-71
2021/10/18 13:20:40;;;;;;;2.95;1.95;;;18.90;44.90;;;;;;5055934;28;20253;-70
2021/10/18 13:23:08;;;;;;;3.35;1.90;;;18.30;46.00;;;;;;5073176;28;20206;-72
2021/10/18 13:25:37;;;;;;;2.00;1.73;;;17.90;47.20;;;;;;5055876;28;20287;-73
2021/10/18 13:28:05;;;;;;;3.30;2.10;;;17.50;48.20;;;;;;5066689;28;20730;-72
2021/10/18 13:30:33;;;;;;;2.77;1.93;;;17.10;48.90;;;;;;5060125;28;20268;-71
2021/10/18 13:33:02;;;;;;;4.10;1.97;;;16.80;50.50;;;;;;5055118;28;20259;-71
2021/10/18 13:35:29;;;;;;;4.53;2.47;;;16.60;50.70;;;;;;5053916;28;20316;-72
2021/10/18 13:37:59;;;;;;;2.40;2.00;;;15.20;50.40;;;;;;5058804;28;20232;-72
2021/10/18 13:40:28;;;;;;;2.70;1.70;;;16.10;51.60;;;;;;5052455;28;20602;-71
2021/10/18 13:42:55;;;;;;;3.00;2.10;;;15.90;52.00;;;;;;5064229;28;20255;-72
2021/10/18 13:45:24;;;;;;;2.93;2.20;;;15.70;52.50;;;;;;5072702;28;20251;-72
2021/10/18 13:47:52;;;;;;;4.60;1.93;;;15.50;52.90;;;;;;5062407;28;20258;-71
2021/10/18 13:50:20;;;;;;;2.87;2.10;;;15.50;53.30;;;;;;5072422;28;20689;-71
2021/10/18 13:52:52;;;;;;;2.43;2.23;;;15.40;53.40;;;;;;5058635;28;20219;-72
2021/10/18 13:55:21;;;;;;;4.73;2.50;;;15.30;53.80;;;;;;5067029;28;20292;-71